Time;durP1;ratioP1;P1;durP2;ratioP2;P2;SDS_P1;SDS_P2;PMS_P1;PMS_P2;Temp;Humidity;BMP_temperature;BMP_pressure;BME280_temperature;BME280_humidity;BME280_pressure;Samples;Min_cycle;Max_cycle;Signal;HPM_P1;HPM_P2
2023/01/04 00:00:35;;;;;;;5.63;3.50;;;5.00;99.90;;;;;;5006766;28;20045;-55
2023/01/04 00:03:01;;;;;;;7.05;2.97;;;5.10;99.90;;;;;;5010545;28;20042;-51
2023/01/04 00:05:26;;;;;;;8.10;3.55;;;5.10;99.90;;;;;;5007199;28;20113;-53
2023/01/04 00:07:52;;;;;;;4.60;3.35;;;5.10;99.90;;;;;;4999962;28;20112;-53
2023/01/04 00:10:17;;;;;;;7.45;3.20;;;5.10;99.90;;;;;;5010080;28;20072;-51
2023/01/04 00:12:43;;;;;;;5.13;2.17;;;5.10;99.90;;;;;;5010040;28;20058;-51
2023/01/04 00:15:09;;;;;;;7.05;2.60;;;5.10;99.90;;;;;;5008757;28;20513;-54
2023/01/04 00:17:34;;;;;;;5.35;2.95;;;5.20;99.90;;;;;;4991740;28;20030;-55
2023/01/04 00:20:00;;;;;;;3.80;2.45;;;5.10;99.90;;;;;;5009227;28;20068;-52
2023/01/04 00:22:25;;;;;;;3.53;2.22;;;5.20;99.90;;;;;;5007042;28;20065;-52
2023/01/04 00:24:51;;;;;;;4.15;2.60;;;5.20;99.90;;;;;;4997609;28;20038;-54
2023/01/04 00:27:17;;;;;;;2.78;2.05;;;5.20;99.90;;;;;;5009327;28;20576;-54
2023/01/04 00:29:42;;;;;;;4.85;2.42;;;5.20;99.90;;;;;;5009548;28;20080;-52
2023/01/04 00:32:08;;;;;;;6.75;2.30;;;5.20;99.90;;;;;;5009722;28;20037;-53
2023/01/04 00:34:33;;;;;;;5.53;2.15;;;5.20;99.90;;;;;;5009468;28;20037;-53
2023/01/04 00:36:59;;;;;;;3.72;1.88;;;5.20;99.90;;;;;;5009527;28;20040;-55
2023/01/04 00:39:24;;;;;;;6.82;2.28;;;5.30;99.90;;;;;;5009476;28;20033;-53
2023/01/04 00:41:53;;;;;;;4.32;1.73;;;5.40;99.90;;;;;;5009479;28;20433;-52
2023/01/04 00:44:20;;;;;;;2.42;1.77;;;5.40;99.90;;;;;;5007604;28;20525;-54
2023/01/04 00:46:46;;;;;;;7.05;2.05;;;5.40;99.90;;;;;;5009403;28;20041;-55
2023/01/04 00:49:12;;;;;;;3.85;2.22;;;5.50;99.90;;;;;;5009742;28;20029;-51
2023/01/04 00:51:40;;;;;;;4.57;2.30;;;5.50;99.90;;;;;;5009599;28;20069;-55
2023/01/04 00:54:11;;;;;;;2.83;1.50;;;5.50;99.90;;;;;;5009735;28;20022;-51
2023/01/04 00:56:37;;;;;;;9.32;1.95;;;5.50;99.90;;;;;;5001763;28;20057;-54
2023/01/04 00:59:04;;;;;;;6.45;2.30;;;5.50;99.90;;;;;;4991624;28;20466;-51
2023/01/04 01:01:31;;;;;;;3.65;1.88;;;5.50;99.90;;;;;;5009196;28;20041;-53
2023/01/04 01:03:59;;;;;;;3.03;1.40;;;5.60;99.90;;;;;;5009262;28;20073;-53
2023/01/04 01:06:27;;;;;;;3.28;1.40;;;5.60;99.90;;;;;;5000615;28;20041;-51
2023/01/04 01:08:53;;;;;;;5.40;1.98;;;5.70;99.90;;;;;;5009241;28;20124;-54
2023/01/04 01:11:20;;;;;;;2.90;1.95;;;5.70;99.90;;;;;;5009085;28;20101;-52
2023/01/04 01:13:46;;;;;;;7.70;1.77;;;5.80;99.90;;;;;;5009005;28;20030;-52
2023/01/04 01:16:20;;;;;;;6.20;1.83;;;5.80;99.90;;;;;;5008696;28;20068;-55
2023/01/04 01:18:46;;;;;;;3.45;1.67;;;5.80;99.90;;;;;;5009428;28;20613;-51
2023/01/04 01:21:15;;;;;;;3.05;1.70;;;5.90;99.90;;;;;;5008883;28;20061;-53
2023/01/04 01:23:42;;;;;;;3.85;1.73;;;5.90;99.90;;;;;;5009178;28;20422;-52
2023/01/04 01:26:11;;;;;;;3.67;1.15;;;5.90;99.90;;;;;;5008662;28;20034;-52
2023/01/04 01:28:37;;;;;;;3.63;1.50;;;6.00;99.90;;;;;;5011306;28;20049;-52
2023/01/04 01:31:08;;;;;;;4.05;1.73;;;6.00;99.90;;;;;;5013476;28;20402;-54
2023/01/04 01:33:38;;;;;;;3.13;1.27;;;6.00;99.90;;;;;;5008626;28;20033;-53
2023/01/04 01:36:05;;;;;;;4.75;1.33;;;6.10;99.90;;;;;;5012005;28;20021;-52
2023/01/04 01:38:31;;;;;;;3.55;1.40;;;6.10;99.90;;;;;;5012771;28;20069;-52
2023/01/04 01:40:56;;;;;;;4.15;1.75;;;6.10;99.90;;;;;;5013236;28;20559;-52
2023/01/04 01:43:43;;;;;;;4.50;1.38;;;6.20;99.90;;;;;;5012438;28;20041;-55
2023/01/04 01:46:09;;;;;;;3.53;1.27;;;6.20;99.90;;;;;;4989378;28;20137;-53
2023/01/04 01:48:36;;;;;;;4.60;1.60;;;6.20;99.90;;;;;;5006193;28;20030;-53
2023/01/04 01:51:03;;;;;;;5.13;1.08;;;6.20;99.90;;;;;;5012444;28;20053;-53
2023/01/04 01:53:33;;;;;;;2.60;1.13;;;6.20;99.90;;;;;;5011971;28;20108;-55
2023/01/04 01:55:59;;;;;;;3.40;1.10;;;6.30;99.90;;;;;;5012117;28;20061;-51
2023/01/04 01:58:36;;;;;;;4.25;1.35;;;6.30;99.90;;;;;;5011470;28;20030;-52
2023/01/04 02:01:02;;;;;;;3.15;1.70;;;6.40;99.90;;;;;;5010282;28;20044;-53
2023/01/04 02:03:38;;;;;;;4.57;1.38;;;6.40;99.90;;;;;;5010042;28;20057;-55
2023/01/04 02:06:07;;;;;;;6.93;1.88;;;6.50;99.90;;;;;;5007575;28;20509;-54
2023/01/04 02:08:34;;;;;;;4.28;1.83;;;6.50;99.90;;;;;;5004321;28;20564;-53
2023/01/04 02:11:00;;;;;;;3.85;1.40;;;6.60;99.90;;;;;;5014398;28;20064;-51
2023/01/04 02:14:25;;;;;;;3.25;1.52;;;6.60;99.90;;;;;;5012050;28;20060;-53
2023/01/04 02:16:22;;;;;;;5.53;1.23;;;6.60;99.90;;;;;;5008907;28;20034;-54
2023/01/04 02:19:13;;;;;;;2.65;1.10;;;6.70;99.90;;;;;;5012164;28;20092;-51
2023/01/04 02:22:06;;;;;;;3.65;1.30;;;6.70;99.90;;;;;;4959649;28;20066;-51
2023/01/04 02:24:47;;;;;;;4.50;1.33;;;6.70;99.90;;;;;;5008342;28;20530;-54
2023/01/04 02:27:31;;;;;;;3.08;1.80;;;6.70;99.90;;;;;;5011134;28;20021;-53
2023/01/04 02:29:57;;;;;;;3.20;1.30;;;6.70;99.90;;;;;;5011460;28;20026;-54
2023/01/04 02:32:40;;;;;;;4.07;1.60;;;6.70;99.90;;;;;;5009259;28;20387;-54
2023/01/04 02:35:20;;;;;;;3.50;1.13;;;6.80;99.90;;;;;;5007775;28;20156;-55
2023/01/04 02:37:56;;;;;;;3.67;1.40;;;6.80;99.90;;;;;;5008435;28;20037;-51
2023/01/04 02:41:02;;;;;;;3.15;1.70;;;6.80;99.90;;;;;;5002561;28;20070;-51
2023/01/04 02:46:28;;;;;;;3.38;1.35;;;6.80;99.90;;;;;;5009601;28;20032;-52
2023/01/04 02:51:43;;;;;;;4.88;1.35;;;6.90;99.90;;;;;;5004859;28;20119;-54
2023/01/04 02:54:21;;;;;;;4.45;1.10;;;7.00;99.90;;;;;;5011207;28;20050;-55
2023/01/04 02:57:12;;;;;;;2.65;0.95;;;7.00;99.90;;;;;;5039237;22;20390;-61
2023/01/04 02:59:43;;;;;;;4.75;1.33;;;7.00;99.90;;;;;;5024588;28;20036;-61
2023/01/04 03:08:31;;;;;;;2.20;0.82;;;7.00;99.90;;;;;;5034204;28;20055;-60
2023/01/04 03:12:30;;;;;;;1.80;1.10;;;7.00;99.90;;;;;;5027545;28;20040;-60
2023/01/04 03:14:01;;;;;;;1.90;0.93;;;7.00;99.90;;;;;;5025168;28;20117;-60
2023/01/04 03:16:29;;;;;;;2.10;1.48;;;6.90;99.90;;;;;;5038221;28;20276;-61
2023/01/04 03:18:57;;;;;;;6.28;2.03;;;6.80;99.90;;;;;;5029155;28;20452;-61
2023/01/04 03:21:25;;;;;;;2.13;1.45;;;6.80;99.90;;;;;;5030566;28;20022;-58
2023/01/04 03:35:23;;;;;;;1.42;1.17;;;6.80;99.90;;;;;;5028639;28;20048;-58
2023/01/04 03:50:12;;;;;;;4.00;1.35;;;6.60;99.90;;;;;;5026103;28;20132;-61
2023/01/04 03:52:39;;;;;;;2.78;1.20;;;6.60;99.90;;;;;;5026339;28;20069;-60
2023/01/04 03:55:08;;;;;;;3.45;1.30;;;6.60;99.90;;;;;;5029886;28;20466;-60
2023/01/04 03:57:34;;;;;;;2.90;1.52;;;6.60;99.90;;;;;;5024525;28;20049;-61
2023/01/04 04:00:08;;;;;;;4.68;1.20;;;6.50;99.90;;;;;;5030280;28;20025;-61
2023/01/04 04:02:35;;;;;;;3.88;1.52;;;6.50;99.90;;;;;;5023904;28;20021;-61
2023/01/04 04:10:31;;;;;;;2.67;1.25;;;6.40;99.90;;;;;;5029658;28;20036;-61
2023/01/04 04:12:56;;;;;;;4.05;1.52;;;6.40;99.90;;;;;;5029339;28;20022;-62
2023/01/04 04:15:22;;;;;;;3.25;1.40;;;6.30;99.90;;;;;;5029305;28;20492;-61
2023/01/04 04:17:47;;;;;;;4.43;1.33;;;6.30;99.90;;;;;;5029715;28;20508;-61
2023/01/04 04:20:13;;;;;;;2.90;1.25;;;6.30;99.90;;;;;;5028860;28;20517;-62
2023/01/04 04:22:39;;;;;;;6.20;1.48;;;6.30;99.90;;;;;;5029597;28;20493;-61
2023/01/04 04:25:05;;;;;;;3.33;1.85;;;6.20;99.90;;;;;;5028915;28;20034;-61
2023/01/04 04:27:31;;;;;;;4.10;1.30;;;6.20;99.90;;;;;;5029203;28;20032;-61
2023/01/04 04:29:57;;;;;;;6.18;1.42;;;6.20;99.90;;;;;;5027820;28;20112;-61
2023/01/04 04:32:22;;;;;;;3.10;1.38;;;6.20;99.90;;;;;;5029350;28;20052;-62
2023/01/04 04:34:48;;;;;;;3.42;1.50;;;6.20;99.90;;;;;;5028971;28;20329;-62
2023/01/04 04:37:14;;;;;;;2.25;1.48;;;6.20;99.90;;;;;;5011704;28;20052;-62
2023/01/04 04:39:39;;;;;;;5.78;1.45;;;6.20;99.90;;;;;;5028099;28;20416;-62
2023/01/04 04:42:05;;;;;;;7.13;1.52;;;6.20;99.90;;;;;;5028956;28;20091;-61
2023/01/04 04:44:33;;;;;;;2.05;1.38;;;6.20;99.90;;;;;;5028661;28;20405;-62
2023/01/04 04:46:59;;;;;;;4.68;1.80;;;6.20;99.90;;;;;;5029035;28;20025;-61
2023/01/04 04:49:24;;;;;;;3.95;1.48;;;6.20;99.90;;;;;;5028676;28;20095;-60
2023/01/04 04:51:50;;;;;;;2.00;1.52;;;6.10;99.90;;;;;;5028920;28;20037;-61
2023/01/04 04:54:18;;;;;;;2.83;1.50;;;6.10;99.90;;;;;;5028594;28;20029;-60
2023/01/04 04:56:44;;;;;;;4.50;1.65;;;6.10;99.90;;;;;;5028300;28;20124;-58
2023/01/04 04:59:09;;;;;;;3.20;1.60;;;6.10;99.90;;;;;;5028816;28;20033;-57
2023/01/04 05:01:35;;;;;;;2.33;1.30;;;6.10;99.90;;;;;;5029126;28;20029;-59
2023/01/04 05:04:01;;;;;;;3.80;1.50;;;6.10;99.90;;;;;;5028187;28;20026;-58
2023/01/04 05:06:27;;;;;;;3.92;1.50;;;6.10;99.90;;;;;;5028572;28;21392;-61
2023/01/04 05:08:52;;;;;;;2.75;1.63;;;6.20;99.90;;;;;;5028800;28;20025;-59
2023/01/04 05:12:58;;;;;;;4.20;1.50;;;6.10;99.90;;;;;;5028724;28;20025;-60
2023/01/04 05:14:04;;;;;;;7.03;1.75;;;6.10;99.90;;;;;;5028616;28;20028;-60
2023/01/04 05:16:29;;;;;;;4.20;1.50;;;6.10;99.90;;;;;;5028807;28;20037;-59
2023/01/04 05:18:55;;;;;;;5.70;1.40;;;6.10;99.90;;;;;;5029016;28;20126;-58
2023/01/04 05:21:20;;;;;;;4.53;1.88;;;6.20;99.90;;;;;;5029134;28;20508;-60
2023/01/04 05:23:46;;;;;;;6.35;1.95;;;6.20;99.90;;;;;;5029010;28;20040;-57
2023/01/04 05:26:11;;;;;;;2.55;1.52;;;6.20;99.90;;;;;;5028207;28;20064;-60
2023/01/04 05:28:37;;;;;;;1.30;1.20;;;6.20;99.90;;;;;;5003137;28;20033;-60
2023/01/04 05:31:02;;;;;;;4.63;1.90;;;6.20;99.90;;;;;;5028850;28;20101;-60
2023/01/04 05:33:30;;;;;;;4.30;1.67;;;6.20;99.90;;;;;;5024705;28;20053;-61
2023/01/04 05:35:57;;;;;;;1.42;1.13;;;6.20;99.90;;;;;;5028841;28;20045;-59
2023/01/04 05:38:23;;;;;;;5.55;1.55;;;6.30;99.90;;;;;;5028904;28;20565;-58
2023/01/04 05:40:49;;;;;;;1.75;1.65;;;6.30;99.90;;;;;;5028902;28;20100;-58
2023/01/04 05:43:16;;;;;;;2.30;1.38;;;6.30;99.90;;;;;;5029053;28;20029;-58
2023/01/04 05:45:43;;;;;;;1.98;1.45;;;6.30;99.90;;;;;;5026603;28;20022;-58
2023/01/04 05:48:09;;;;;;;1.88;1.10;;;6.40;99.90;;;;;;5010780;28;20021;-59
2023/01/04 05:50:34;;;;;;;2.80;1.35;;;6.40;99.90;;;;;;5028954;28;20037;-57
2023/01/04 05:53:00;;;;;;;1.20;1.10;;;6.40;99.90;;;;;;5028866;28;20075;-57
2023/01/04 05:55:25;;;;;;;5.15;1.45;;;6.40;99.90;;;;;;5028737;28;20022;-57
2023/01/04 05:57:51;;;;;;;3.67;1.17;;;6.50;99.90;;;;;;5023184;28;20033;-60
2023/01/04 06:00:17;;;;;;;2.15;1.17;;;6.50;99.90;;;;;;5028604;28;20057;-61
2023/01/04 06:02:43;;;;;;;7.32;1.60;;;6.50;99.90;;;;;;5028326;28;20018;-58
2023/01/04 06:05:10;;;;;;;0.95;0.85;;;6.50;99.90;;;;;;5028243;28;20028;-59
2023/01/04 06:07:36;;;;;;;1.95;1.30;;;6.50;99.90;;;;;;5010934;28;20083;-58
2023/01/04 06:10:02;;;;;;;3.45;1.50;;;6.50;99.90;;;;;;5028501;28;20394;-59
2023/01/04 06:12:28;;;;;;;3.75;1.33;;;6.50;99.90;;;;;;5028377;28;20037;-56
2023/01/04 06:14:53;;;;;;;9.20;1.35;;;6.60;99.90;;;;;;5011558;28;20370;-60
2023/01/04 06:17:19;;;;;;;1.73;1.30;;;6.50;99.90;;;;;;5031462;28;20436;-59
2023/01/04 06:19:45;;;;;;;1.77;1.30;;;6.60;99.90;;;;;;5030583;28;20053;-60
2023/01/04 06:22:10;;;;;;;3.30;1.40;;;6.60;99.90;;;;;;5031885;28;20115;-60
2023/01/04 06:24:36;;;;;;;1.70;1.33;;;6.60;99.90;;;;;;5031245;28;20033;-60
2023/01/04 06:27:02;;;;;;;1.90;1.23;;;6.60;99.90;;;;;;5032001;28;20024;-59
2023/01/04 06:29:28;;;;;;;1.27;1.05;;;6.60;99.90;;;;;;5031918;28;20038;-60
2023/01/04 06:31:54;;;;;;;2.05;1.05;;;6.60;99.90;;;;;;5030930;28;20052;-59
2023/01/04 06:34:19;;;;;;;1.10;1.00;;;6.70;99.90;;;;;;5031407;28;20025;-59
2023/01/04 06:36:45;;;;;;;0.95;0.95;;;6.70;99.90;;;;;;5031579;28;20044;-61
2023/01/04 06:39:11;;;;;;;2.08;1.30;;;6.80;99.90;;;;;;5013628;28;20105;-60
2023/01/04 06:41:37;;;;;;;2.85;1.60;;;6.80;99.90;;;;;;5031218;28;20049;-60
2023/01/04 06:44:03;;;;;;;0.93;0.90;;;6.80;99.90;;;;;;5031353;28;20045;-60
2023/01/04 06:46:28;;;;;;;2.40;1.38;;;6.80;99.90;;;;;;5030885;28;20026;-59
2023/01/04 06:48:54;;;;;;;0.85;0.82;;;6.90;99.90;;;;;;5031150;28;20033;-60
2023/01/04 06:51:20;;;;;;;1.65;1.10;;;6.90;99.90;;;;;;5031677;28;20025;-59
2023/01/04 06:53:46;;;;;;;1.50;1.40;;;6.90;99.90;;;;;;5030874;28;20109;-60
2023/01/04 06:56:12;;;;;;;3.47;1.50;;;6.90;99.90;;;;;;5030962;28;20098;-58
2023/01/04 06:58:37;;;;;;;1.55;1.30;;;7.00;99.90;;;;;;5029771;28;20041;-59
2023/01/04 07:01:03;;;;;;;1.73;1.25;;;7.00;99.90;;;;;;5030949;28;20033;-60
2023/01/04 07:03:29;;;;;;;2.05;1.23;;;7.10;99.90;;;;;;5030911;28;20091;-59
2023/01/04 07:05:55;;;;;;;1.30;1.20;;;7.10;99.90;;;;;;5030830;28;20033;-60
2023/01/04 07:08:20;;;;;;;1.75;1.27;;;7.10;99.90;;;;;;5031168;28;20057;-59
2023/01/04 07:10:46;;;;;;;1.90;1.70;;;7.20;99.90;;;;;;5031065;28;20033;-59
2023/01/04 07:13:12;;;;;;;1.38;1.27;;;7.20;99.90;;;;;;5030715;28;20018;-59
2023/01/04 07:15:37;;;;;;;1.88;1.35;;;7.20;99.90;;;;;;5030197;28;20127;-60
2023/01/04 07:18:03;;;;;;;2.28;1.30;;;7.30;99.90;;;;;;5030620;28;20052;-60
2023/01/04 07:20:28;;;;;;;2.28;1.80;;;7.30;99.90;;;;;;5015255;28;20033;-60
2023/01/04 07:22:54;;;;;;;1.40;1.30;;;7.30;99.90;;;;;;5030695;28;20029;-60
2023/01/04 07:25:20;;;;;;;1.60;1.48;;;7.30;99.90;;;;;;5028922;28;20563;-59
2023/01/04 07:27:51;;;;;;;5.20;1.60;;;7.30;99.90;;;;;;5030257;28;20445;-60
2023/01/04 07:30:17;;;;;;;2.90;1.60;;;7.40;99.90;;;;;;5029962;28;20021;-60
2023/01/04 07:32:42;;;;;;;2.63;1.98;;;7.40;99.90;;;;;;5025968;28;20034;-59
2023/01/04 07:35:08;;;;;;;1.85;1.73;;;7.40;99.90;;;;;;5027197;28;20029;-59
2023/01/04 07:37:33;;;;;;;3.38;1.67;;;7.50;99.90;;;;;;5030653;28;20025;-59
2023/01/04 07:39:59;;;;;;;2.95;2.45;;;7.50;99.90;;;;;;5013017;28;20021;-60
2023/01/04 07:42:25;;;;;;;2.30;2.10;;;7.60;99.90;;;;;;5030514;28;20626;-59
2023/01/04 07:44:51;;;;;;;2.70;2.47;;;7.60;99.90;;;;;;5012620;28;20021;-59
2023/01/04 07:47:16;;;;;;;2.65;2.00;;;7.60;99.90;;;;;;5029374;28;20100;-60
2023/01/04 07:49:42;;;;;;;2.35;2.15;;;7.60;99.90;;;;;;5030547;28;20481;-59
2023/01/04 07:52:07;;;;;;;3.03;2.65;;;7.70;99.90;;;;;;4995675;28;20021;-59
2023/01/04 07:54:33;;;;;;;3.03;2.70;;;7.70;99.90;;;;;;5029885;28;20030;-60
2023/01/04 07:56:58;;;;;;;3.95;2.60;;;7.80;99.90;;;;;;5029808;28;20037;-61
2023/01/04 07:59:24;;;;;;;4.68;2.88;;;7.80;99.90;;;;;;5029387;28;20052;-59
2023/01/04 08:01:49;;;;;;;3.28;2.97;;;7.80;99.90;;;;;;5029573;28;20025;-60
2023/01/04 08:04:16;;;;;;;5.32;2.90;;;7.80;99.90;;;;;;5028824;28;20104;-60
2023/01/04 08:06:45;;;;;;;3.70;3.38;;;7.90;99.90;;;;;;5029861;28;20029;-61
2023/01/04 08:09:11;;;;;;;5.32;3.83;;;7.90;99.90;;;;;;5029425;28;20021;-60
2023/01/04 08:11:37;;;;;;;3.80;3.38;;;8.00;99.90;;;;;;5029910;28;20033;-60
2023/01/04 08:14:03;;;;;;;5.07;4.03;;;8.00;99.90;;;;;;5029846;28;20021;-61
2023/01/04 08:16:31;;;;;;;3.90;3.47;;;8.00;99.90;;;;;;5011482;28;20048;-60
2023/01/04 08:19:19;;;;;;;5.93;3.90;;;8.00;99.90;;;;;;5029844;28;20056;-61
2023/01/04 08:21:46;;;;;;;5.03;3.97;;;8.10;99.90;;;;;;5023526;28;20099;-59
2023/01/04 08:24:16;;;;;;;6.47;3.72;;;8.10;99.90;;;;;;5029343;28;20095;-60
2023/01/04 08:26:42;;;;;;;4.90;4.20;;;8.10;99.90;;;;;;5029010;28;20076;-62
2023/01/04 08:29:10;;;;;;;5.45;4.18;;;8.20;99.90;;;;;;5021460;28;20084;-60
2023/01/04 08:31:35;;;;;;;4.93;3.53;;;8.20;99.90;;;;;;5028892;28;20030;-61
2023/01/04 08:34:04;;;;;;;4.38;3.90;;;8.20;99.90;;;;;;5028871;28;20104;-60
2023/01/04 08:36:32;;;;;;;4.57;3.85;;;8.20;99.90;;;;;;5028434;28;20342;-61
2023/01/04 08:39:03;;;;;;;5.82;4.20;;;8.30;99.90;;;;;;5027955;28;20580;-60
2023/01/04 08:41:30;;;;;;;4.32;3.60;;;8.30;99.90;;;;;;5029475;28;20029;-60
2023/01/04 08:43:55;;;;;;;3.85;3.47;;;8.30;99.90;;;;;;5029120;28;20023;-60
2023/01/04 08:46:21;;;;;;;6.85;4.55;;;8.30;99.90;;;;;;5028033;28;20413;-60
2023/01/04 08:48:46;;;;;;;4.40;4.00;;;8.40;99.90;;;;;;5011417;28;20587;-60
2023/01/04 08:51:14;;;;;;;5.47;4.40;;;8.40;99.90;;;;;;5028177;28;20494;-60
2023/01/04 08:53:40;;;;;;;78.78;44.65;;;8.40;99.90;;;;;;5026987;28;20063;-60
2023/01/04 08:56:06;;;;;;;8.10;6.38;;;8.40;99.90;;;;;;5029191;28;20021;-59
2023/01/04 08:58:33;;;;;;;22.27;15.70;;;8.50;99.90;;;;;;5011627;28;20041;-60
2023/01/04 09:01:03;;;;;;;19.98;14.10;;;8.50;99.90;;;;;;5029094;28;20508;-60
2023/01/04 09:03:29;;;;;;;6.35;5.53;;;8.60;99.90;;;;;;5011360;28;20057;-60
2023/01/04 09:06:10;;;;;;;4.70;3.92;;;8.60;99.90;;;;;;5029263;28;20033;-58
2023/01/04 09:08:38;;;;;;;4.78;4.28;;;8.60;99.90;;;;;;5023287;28;20029;-60
2023/01/04 09:11:10;;;;;;;3.75;3.35;;;8.60;99.90;;;;;;5029198;28;20032;-60
2023/01/04 09:13:36;;;;;;;5.32;3.92;;;8.70;99.90;;;;;;5023217;28;20026;-60
2023/01/04 09:16:03;;;;;;;3.40;3.10;;;8.70;99.90;;;;;;4990298;28;20020;-59
2023/01/04 09:18:29;;;;;;;3.20;2.92;;;8.80;99.90;;;;;;5028024;28;20105;-59
2023/01/04 09:20:55;;;;;;;3.33;3.00;;;8.80;99.90;;;;;;5028603;28;20402;-60
2023/01/04 09:23:21;;;;;;;2.70;2.50;;;8.90;99.90;;;;;;5028145;28;20088;-60
2023/01/04 09:25:46;;;;;;;3.33;3.03;;;8.90;99.90;;;;;;5028024;28;20072;-60
2023/01/04 09:28:12;;;;;;;3.65;3.35;;;8.90;99.90;;;;;;5027923;28;20049;-60
2023/01/04 09:30:37;;;;;;;3.05;2.28;;;8.90;99.90;;;;;;5028570;28;20075;-59
2023/01/04 09:33:03;;;;;;;2.85;2.55;;;9.00;99.90;;;;;;5028547;28;20059;-61
2023/01/04 09:35:28;;;;;;;3.08;2.20;;;9.00;99.90;;;;;;5028073;28;20581;-58
2023/01/04 09:37:55;;;;;;;2.88;2.40;;;9.00;99.90;;;;;;5028261;28;20029;-58
2023/01/04 09:40:29;;;;;;;2.58;2.38;;;9.10;99.90;;;;;;5011270;28;20041;-60
2023/01/04 09:42:54;;;;;;;3.35;2.58;;;9.10;99.90;;;;;;5029404;28;20059;-58
2023/01/04 09:45:25;;;;;;;2.85;2.65;;;9.10;99.90;;;;;;5028270;28;20061;-59
2023/01/04 09:47:57;;;;;;;2.42;2.22;;;9.10;99.90;;;;;;5028021;28;20037;-59
2023/01/04 09:50:36;;;;;;;2.75;2.55;;;9.20;99.90;;;;;;5032210;28;20029;-60
2023/01/04 09:53:15;;;;;;;2.80;2.60;;;9.20;99.90;;;;;;5032507;28;20053;-58
2023/01/04 09:55:49;;;;;;;2.72;2.53;;;9.20;99.90;;;;;;5028049;28;20036;-61
2023/01/04 09:58:37;;;;;;;2.38;2.17;;;9.30;99.90;;;;;;5031860;28;20037;-59
2023/01/04 10:01:13;;;;;;;3.05;2.30;;;9.30;99.90;;;;;;5032434;28;20055;-59
2023/01/04 10:03:46;;;;;;;2.35;2.05;;;9.30;99.90;;;;;;5031999;28;20029;-60
2023/01/04 10:06:14;;;;;;;2.40;2.20;;;9.40;99.90;;;;;;5031842;28;20051;-60
2023/01/04 10:08:41;;;;;;;2.70;2.50;;;9.40;99.90;;;;;;5031813;28;20030;-60
2023/01/04 10:11:12;;;;;;;1.80;1.70;;;9.40;99.90;;;;;;5032320;28;20443;-60
2023/01/04 10:13:38;;;;;;;2.88;2.17;;;9.40;99.90;;;;;;5027760;28;20096;-61
2023/01/04 10:16:19;;;;;;;2.13;2.03;;;9.50;99.90;;;;;;5031988;28;20543;-60
2023/01/04 10:19:03;;;;;;;2.53;2.33;;;9.50;99.90;;;;;;5028365;28;20072;-60
2023/01/04 10:21:43;;;;;;;17.98;8.77;;;9.50;99.90;;;;;;5030460;28;20029;-60
2023/01/04 10:24:27;;;;;;;14.13;8.50;;;9.50;99.90;;;;;;5028331;28;20044;-61
2023/01/04 10:27:00;;;;;;;4.53;3.78;;;9.60;99.90;;;;;;5028355;28;20421;-60
2023/01/04 10:29:37;;;;;;;4.80;4.40;;;9.60;99.90;;;;;;5030390;28;20026;-60
2023/01/04 10:32:19;;;;;;;3.35;3.15;;;9.60;99.90;;;;;;5030282;28;20546;-60
2023/01/04 10:34:46;;;;;;;4.22;3.83;;;9.60;99.90;;;;;;5007720;28;20504;-61
2023/01/04 10:37:19;;;;;;;4.18;2.70;;;9.60;99.90;;;;;;5027574;28;20147;-59
2023/01/04 10:39:49;;;;;;;3.60;3.30;;;9.60;99.90;;;;;;5026340;28;20104;-59
2023/01/04 10:42:31;;;;;;;1.73;1.63;;;9.70;99.90;;;;;;5028162;28;20031;-60
2023/01/04 10:45:14;;;;;;;2.25;2.13;;;9.70;99.90;;;;;;5030588;28;20586;-59
2023/01/04 10:48:05;;;;;;;2.25;1.70;;;9.70;99.90;;;;;;5023926;28;20025;-61
2023/01/04 10:50:50;;;;;;;2.10;1.83;;;9.80;99.90;;;;;;5030220;28;20033;-60
2023/01/04 10:53:29;;;;;;;1.70;1.60;;;9.70;99.90;;;;;;5031528;28;20025;-60
2023/01/04 10:56:36;;;;;;;1.63;1.48;;;9.70;99.90;;;;;;5031028;28;20032;-60
2023/01/04 10:59:20;;;;;;;;;;;9.80;99.90;;;;;;5027148;28;20041;-60
2023/01/04 11:02:00;;;;;;;2.00;1.90;;;9.80;99.90;;;;;;5024862;28;19916;-60
2023/01/04 11:04:32;;;;;;;1.50;1.40;;;9.80;99.90;;;;;;5031332;28;20117;-59
2023/01/04 11:07:04;;;;;;;1.52;1.42;;;9.80;99.90;;;;;;5035290;28;20065;-60
2023/01/04 11:10:02;;;;;;;2.00;1.73;;;9.90;99.90;;;;;;5029879;28;20026;-60
2023/01/04 11:12:28;;;;;;;1.60;1.50;;;9.90;99.90;;;;;;5006761;28;20539;-61
2023/01/04 11:14:53;;;;;;;1.63;1.50;;;9.90;99.90;;;;;;5027939;28;20025;-60
2023/01/04 11:17:21;;;;;;;2.13;1.92;;;9.90;99.90;;;;;;5011360;28;20037;-59
2023/01/04 11:19:47;;;;;;;2.05;1.90;;;10.00;99.90;;;;;;5027599;28;20103;-60
2023/01/04 11:22:22;;;;;;;1.98;1.77;;;10.00;99.90;;;;;;5029550;28;20026;-59
2023/01/04 11:24:53;;;;;;;2.20;2.10;;;10.00;99.90;;;;;;5029060;28;20079;-58
2023/01/04 11:27:24;;;;;;;2.80;2.10;;;10.00;99.90;;;;;;5029312;28;20075;-59
2023/01/04 11:30:19;;;;;;;2.17;2.00;;;10.10;99.90;;;;;;5029574;28;20033;-59
2023/01/04 11:33:09;;;;;;;1.63;1.52;;;10.10;99.90;;;;;;5022768;28;20172;-61
2023/01/04 11:35:51;;;;;;;2.22;1.90;;;10.10;99.90;;;;;;5027507;28;20029;-60
2023/01/04 11:38:21;;;;;;;2.30;2.10;;;10.10;99.90;;;;;;5028190;28;20022;-59
2023/01/04 11:41:15;;;;;;;2.15;1.90;;;10.10;99.90;;;;;;5029183;28;20040;-61
2023/01/04 11:44:00;;;;;;;1.85;1.75;;;10.10;99.90;;;;;;5022438;28;20056;-58
2023/01/04 11:46:27;;;;;;;2.92;1.65;;;10.20;99.90;;;;;;5028086;28;20034;-58
2023/01/04 11:48:53;;;;;;;1.58;1.48;;;10.20;99.90;;;;;;5029004;28;20448;-60
2023/01/04 11:51:28;;;;;;;1.75;1.65;;;10.20;99.90;;;;;;5029332;28;20028;-59
2023/01/04 11:54:13;;;;;;;2.70;1.52;;;10.20;99.90;;;;;;5011451;28;20025;-58
2023/01/04 11:57:07;;;;;;;1.77;1.67;;;10.20;99.90;;;;;;5021395;28;20029;-57
2023/01/04 11:59:32;;;;;;;2.22;2.00;;;10.20;99.90;;;;;;5029288;28;20064;-59
2023/01/04 12:02:24;;;;;;;1.73;1.63;;;10.20;99.90;;;;;;5028956;28;20049;-60
2023/01/04 12:04:52;;;;;;;1.90;1.80;;;10.20;99.90;;;;;;5005145;28;20511;-59
2023/01/04 12:07:27;;;;;;;1.80;1.70;;;10.30;99.90;;;;;;5028945;28;20033;-60
2023/01/04 12:09:53;;;;;;;1.85;1.75;;;10.30;99.90;;;;;;5022843;28;20417;-59
2023/01/04 12:12:19;;;;;;;2.97;1.98;;;10.30;99.90;;;;;;5028681;28;20025;-59
2023/01/04 12:14:48;;;;;;;1.70;1.60;;;10.30;99.90;;;;;;5028670;28;20040;-57
2023/01/04 12:17:41;;;;;;;2.03;1.67;;;10.30;99.90;;;;;;5010785;28;20470;-60
2023/01/04 12:20:17;;;;;;;1.70;1.60;;;10.30;99.90;;;;;;5023629;28;20112;-61
2023/01/04 12:22:42;;;;;;;1.70;1.60;;;10.30;99.90;;;;;;5023686;28;20056;-61
2023/01/04 12:25:26;;;;;;;1.55;1.45;;;10.30;99.90;;;;;;5028096;28;20280;-61
2023/01/04 12:27:54;;;;;;;2.13;1.40;;;10.30;99.90;;;;;;5023549;28;20025;-60
2023/01/04 12:30:43;;;;;;;2.78;2.45;;;10.30;99.90;;;;;;5025765;28;20059;-60
2023/01/04 12:33:30;;;;;;;1.65;1.55;;;10.30;99.90;;;;;;5025857;28;20017;-60
2023/01/04 12:36:06;;;;;;;2.50;1.70;;;10.30;99.90;;;;;;5024215;28;20017;-60
2023/01/04 12:38:51;;;;;;;5.13;3.35;;;10.40;99.90;;;;;;5027402;28;20112;-60
2023/01/04 12:41:37;;;;;;;4.05;3.47;;;10.40;99.90;;;;;;5029721;28;20026;-59
2023/01/04 12:44:37;;;;;;;2.63;2.28;;;10.40;99.90;;;;;;4981519;28;20032;-60
2023/01/04 12:50:07;;;;;;;2.55;2.15;;;10.40;99.90;;;;;;5028733;28;20084;-59
2023/01/04 12:52:32;;;;;;;5.85;5.18;;;10.40;99.90;;;;;;5028112;28;20025;-59
2023/01/04 12:55:15;;;;;;;5.10;3.90;;;10.40;99.90;;;;;;5010594;28;20034;-60
2023/01/04 12:57:41;;;;;;;2.70;2.50;;;10.40;99.90;;;;;;5027357;28;20029;-60
2023/01/04 13:00:12;;;;;;;1.52;1.42;;;10.50;99.90;;;;;;5029059;28;20036;-58
2023/01/04 13:02:49;;;;;;;7.90;5.78;;;10.40;99.90;;;;;;5008860;28;20025;-60
2023/01/04 13:05:17;;;;;;;2.97;2.30;;;10.40;99.90;;;;;;5026309;28;20029;-56
2023/01/04 13:07:47;;;;;;;7.30;6.60;;;10.40;99.90;;;;;;5029024;28;20014;-60
2023/01/04 13:10:30;;;;;;;5.50;5.00;;;10.50;99.90;;;;;;5029247;28;20021;-60
2023/01/04 13:13:15;;;;;;;6.68;5.88;;;10.50;99.90;;;;;;5023069;28;20024;-59
2023/01/04 13:15:53;;;;;;;5.13;2.85;;;10.50;99.90;;;;;;5025756;28;20057;-60
2023/01/04 13:18:21;;;;;;;3.22;3.03;;;10.50;99.90;;;;;;5026452;28;20079;-59
2023/01/04 13:20:47;;;;;;;1.80;1.70;;;10.50;99.90;;;;;;5010572;28;20030;-58
2023/01/04 13:23:13;;;;;;;2.78;2.55;;;10.50;99.90;;;;;;5027671;28;20440;-61
2023/01/04 13:25:38;;;;;;;2.75;1.90;;;10.50;99.90;;;;;;5014858;28;20075;-61
2023/01/04 13:28:04;;;;;;;3.40;1.38;;;10.60;99.90;;;;;;5032082;28;20036;-61
2023/01/04 13:30:34;;;;;;;1.65;1.20;;;10.60;99.90;;;;;;5032578;28;20032;-59
2023/01/04 13:33:08;;;;;;;2.63;1.58;;;10.50;99.90;;;;;;5032291;28;20017;-59
2023/01/04 13:35:33;;;;;;;2.03;1.25;;;10.60;99.90;;;;;;5030310;28;20033;-59
2023/01/04 13:38:00;;;;;;;2.95;1.50;;;10.60;99.90;;;;;;5032033;28;20026;-58
2023/01/04 13:40:34;;;;;;;1.58;1.13;;;10.60;99.90;;;;;;5031014;28;20060;-60
2023/01/04 13:43:36;;;;;;;1.20;0.90;;;10.60;99.90;;;;;;5030935;28;20030;-60
2023/01/04 13:46:22;;;;;;;1.20;0.90;;;10.60;99.90;;;;;;5026566;28;20029;-58
2023/01/04 13:48:51;;;;;;;0.90;0.90;;;10.60;99.90;;;;;;5027251;28;20025;-60
2023/01/04 13:51:28;;;;;;;1.88;1.15;;;10.60;99.90;;;;;;5014229;28;20116;-60
2023/01/04 13:53:58;;;;;;;1.73;0.80;;;10.60;99.90;;;;;;5014034;28;20385;-60
2023/01/04 13:56:26;;;;;;;1.55;1.05;;;10.60;99.90;;;;;;5031256;28;20021;-59